createdAt,value
2018-07-08T00:01:30.238Z,12.87
2018-07-08T00:03:59.426Z,12.80
2018-07-08T00:06:28.561Z,13.20
2018-07-08T00:08:57.686Z,12.30
2018-07-08T00:11:26.786Z,13.13
2018-07-08T00:13:55.943Z,13.63
2018-07-08T00:16:25.214Z,13.10
2018-07-08T00:18:54.232Z,13.50
2018-07-08T00:21:23.365Z,13.10
2018-07-08T00:23:52.497Z,13.00
2018-07-08T00:26:21.674Z,12.90
2018-07-08T00:28:50.733Z,13.23
2018-07-08T00:31:19.786Z,13.37
2018-07-08T00:33:48.994Z,12.50
2018-07-08T00:36:18.086Z,13.20
2018-07-08T00:38:47.276Z,13.80
2018-07-08T00:41:16.597Z,14.03
2018-07-08T00:43:45.696Z,12.83
2018-07-08T00:46:14.877Z,13.87
2018-07-08T00:48:43.998Z,12.87
2018-07-08T00:51:12.814Z,13.23
2018-07-08T00:53:41.956Z,13.50
2018-07-08T00:56:11.059Z,13.53
2018-07-08T00:58:40.286Z,12.40
2018-07-08T01:01:09.338Z,13.40
2018-07-08T01:03:38.446Z,13.43
2018-07-08T01:06:07.593Z,13.57
2018-07-08T01:08:36.716Z,13.50
2018-07-08T01:11:05.790Z,14.60
2018-07-08T01:13:34.913Z,13.70
2018-07-08T01:16:03.997Z,13.20
2018-07-08T01:18:33.131Z,14.17
2018-07-08T01:21:02.246Z,14.30
2018-07-08T01:23:31.342Z,13.23
2018-07-08T01:26:12.014Z,12.80
2018-07-08T01:28:41.922Z,13.30
2018-07-08T01:31:12.287Z,12.70
2018-07-08T01:33:41.422Z,13.73
2018-07-08T01:36:10.954Z,12.80
2018-07-08T01:38:40.114Z,14.00
2018-07-08T01:41:09.388Z,13.70
2018-07-08T01:43:38.562Z,13.50
2018-07-08T01:46:07.654Z,13.10
2018-07-08T01:48:36.797Z,13.73
2018-07-08T01:51:05.856Z,13.50
2018-07-08T01:53:34.978Z,14.00
2018-07-08T01:56:04.198Z,14.07
2018-07-08T01:58:33.323Z,14.53
2018-07-08T02:01:02.477Z,15.00
2018-07-08T02:03:31.553Z,14.13
2018-07-08T02:06:00.843Z,14.37
2018-07-08T02:08:30.005Z,15.37
2018-07-08T02:10:59.146Z,13.53
2018-07-08T02:13:28.314Z,14.63
2018-07-08T02:15:57.297Z,15.03
2018-07-08T02:18:26.396Z,14.97
2018-07-08T02:20:55.569Z,14.43
2018-07-08T02:23:24.633Z,13.00
2018-07-08T02:25:53.740Z,12.93
2018-07-08T02:28:22.748Z,14.20
2018-07-08T02:30:51.928Z,14.10
2018-07-08T02:33:21.026Z,14.50
2018-07-08T02:35:50.213Z,14.60
2018-07-08T02:38:19.285Z,14.50
2018-07-08T02:40:48.547Z,15.07
2018-07-08T02:43:17.607Z,14.60
2018-07-08T02:45:46.750Z,14.43
2018-07-08T02:48:15.832Z,14.73
2018-07-08T02:50:44.939Z,14.40
2018-07-08T02:53:14.030Z,14.80
2018-07-08T02:55:43.541Z,15.10
2018-07-08T02:58:12.697Z,15.20
2018-07-08T03:00:41.820Z,15.40
2018-07-08T03:03:11.015Z,15.07
2018-07-08T03:05:40.074Z,15.23
2018-07-08T03:08:09.126Z,15.07
2018-07-08T03:10:38.261Z,14.70
2018-07-08T03:13:07.407Z,14.70
2018-07-08T03:15:36.564Z,14.00
2018-07-08T03:18:05.510Z,14.93
2018-07-08T03:20:34.564Z,13.53
2018-07-08T03:23:03.730Z,15.40
2018-07-08T03:25:32.918Z,14.03
2018-07-08T03:28:02.023Z,14.00
2018-07-08T03:30:31.125Z,14.30
2018-07-08T03:33:00.076Z,14.20
2018-07-08T03:35:29.118Z,13.50
2018-07-08T03:37:58.208Z,13.37
2018-07-08T03:40:27.304Z,15.00
2018-07-08T03:42:56.473Z,15.47
2018-07-08T03:45:25.599Z,15.53
2018-07-08T03:47:54.826Z,14.37
2018-07-08T03:50:23.908Z,14.80
2018-07-08T03:52:53.545Z,15.60
2018-07-08T03:55:22.603Z,14.30
2018-07-08T03:57:51.820Z,15.47
2018-07-08T04:00:20.977Z,13.90
2018-07-08T04:02:49.874Z,15.37
2018-07-08T04:05:18.990Z,15.37
2018-07-08T04:07:48.158Z,15.87
2018-07-08T04:10:17.406Z,14.50
2018-07-08T04:12:46.593Z,15.40
2018-07-08T04:15:15.760Z,14.67
2018-07-08T04:17:44.810Z,14.50
2018-07-08T04:20:13.925Z,13.50
2018-07-08T04:22:43.125Z,14.83
2018-07-08T04:25:12.281Z,13.77
2018-07-08T04:27:41.389Z,14.27
2018-07-08T04:30:10.446Z,13.90
2018-07-08T04:32:39.630Z,13.97
2018-07-08T04:35:08.862Z,12.73
2018-07-08T04:37:38.010Z,14.63
2018-07-08T04:40:07.327Z,14.07
2018-07-08T04:42:36.470Z,14.67
2018-07-08T04:45:05.582Z,13.53
2018-07-08T04:47:34.765Z,12.93
2018-07-08T04:50:03.890Z,14.30
2018-07-08T04:52:33.018Z,13.70
2018-07-08T04:55:02.174Z,13.40
2018-07-08T04:57:31.299Z,13.43
2018-07-08T05:00:00.539Z,13.33
2018-07-08T05:02:29.776Z,13.67
2018-07-08T05:04:59.157Z,14.20
2018-07-08T05:07:28.350Z,14.37
2018-07-08T05:09:57.826Z,13.37
2018-07-08T05:12:27.137Z,14.33
2018-07-08T05:14:56.423Z,14.43
2018-07-08T05:17:25.626Z,13.67
2018-07-08T05:19:54.729Z,15.60
2018-07-08T05:22:23.917Z,12.90
2018-07-08T05:24:53.087Z,14.30
2018-07-08T05:27:22.166Z,13.37
2018-07-08T05:29:51.456Z,16.40
2018-07-08T05:32:20.576Z,13.60
2018-07-08T05:34:49.917Z,15.23
2018-07-08T05:37:19.060Z,13.20
2018-07-08T05:39:48.257Z,14.63
2018-07-08T05:42:17.531Z,13.03
2018-07-08T05:44:46.733Z,14.27
2018-07-08T05:47:15.922Z,15.47
2018-07-08T05:49:45.817Z,13.73
2018-07-08T05:52:14.951Z,13.10
2018-07-08T05:54:44.270Z,15.00
2018-07-08T05:57:13.527Z,13.93
2018-07-08T05:59:42.630Z,14.10
2018-07-08T06:02:11.938Z,15.37
2018-07-08T06:04:41.206Z,14.97
2018-07-08T06:07:10.387Z,13.73
2018-07-08T06:09:39.678Z,14.40
2018-07-08T06:12:09.063Z,14.47
2018-07-08T06:14:38.169Z,15.37
2018-07-08T06:17:07.355Z,13.90
2018-07-08T06:19:36.626Z,14.90
2018-07-08T06:22:05.901Z,17.57
2018-07-08T06:24:35.074Z,14.80
2018-07-08T06:27:04.233Z,13.90
2018-07-08T06:29:33.408Z,14.07
2018-07-08T06:32:02.517Z,14.40
2018-07-08T06:34:31.688Z,13.00
2018-07-08T06:37:00.842Z,12.37
2018-07-08T06:39:29.994Z,14.00
2018-07-08T06:41:59.158Z,12.40
2018-07-08T06:44:28.310Z,11.97
2018-07-08T06:46:57.449Z,13.43
2018-07-08T06:49:26.619Z,12.73
2018-07-08T06:51:55.833Z,13.00
2018-07-08T06:54:25.128Z,13.93
2018-07-08T06:56:54.170Z,14.50
2018-07-08T06:59:23.370Z,12.10
2018-07-08T07:01:52.505Z,13.20
2018-07-08T07:04:21.713Z,13.60
2018-07-08T07:06:50.998Z,14.03
2018-07-08T07:09:20.058Z,14.03
2018-07-08T07:11:49.295Z,13.27
2018-07-08T07:14:18.453Z,13.60
2018-07-08T07:16:47.610Z,14.07
2018-07-08T07:19:16.802Z,13.40
2018-07-08T07:21:45.962Z,13.50
2018-07-08T07:24:15.666Z,14.50
2018-07-08T07:26:44.840Z,14.07
2018-07-08T07:29:14.150Z,13.80
2018-07-08T07:31:43.291Z,18.60
2018-07-08T07:34:12.457Z,15.57
2018-07-08T07:36:41.722Z,12.80
2018-07-08T07:39:10.925Z,13.40
2018-07-08T07:41:40.007Z,12.27
2018-07-08T07:44:09.094Z,13.50
2018-07-08T07:46:38.349Z,14.23
2018-07-08T07:49:07.471Z,14.00
2018-07-08T07:51:36.805Z,12.50
2018-07-08T07:54:05.937Z,12.67
2018-07-08T07:56:35.161Z,12.10
2018-07-08T07:59:04.327Z,12.37
2018-07-08T08:01:33.570Z,12.97
2018-07-08T08:04:02.767Z,13.13
2018-07-08T08:06:31.998Z,13.70
2018-07-08T08:09:01.121Z,12.07
2018-07-08T08:11:29.945Z,12.43
2018-07-08T08:14:05.091Z,13.60
2018-07-08T08:16:35.722Z,14.10
2018-07-08T08:19:05.096Z,12.63
2018-07-08T08:21:34.314Z,13.10
2018-07-08T08:24:03.510Z,12.03
2018-07-08T08:26:35.295Z,13.27
2018-07-08T08:29:06.093Z,13.50
2018-07-08T08:31:35.310Z,16.40
2018-07-08T08:35:11.350Z,14.40
2018-07-08T08:37:43.007Z,13.20
2018-07-08T08:40:12.846Z,13.13
2018-07-08T08:42:43.116Z,12.17
2018-07-08T08:45:13.481Z,11.20
2018-07-08T08:47:42.759Z,11.73
2018-07-08T08:50:12.194Z,11.47
2018-07-08T08:52:41.480Z,11.03
2018-07-08T08:55:15.849Z,9.20
2018-07-08T08:57:46.747Z,11.07
2018-07-08T09:00:17.953Z,9.50
2018-07-08T09:02:47.681Z,9.23
2018-07-08T09:05:16.742Z,9.17
2018-07-08T09:07:46.146Z,7.10
2018-07-08T09:10:16.318Z,8.60
2018-07-08T09:12:45.858Z,7.73
2018-07-08T09:15:17.385Z,7.70
2018-07-08T09:17:47.306Z,6.87
2018-07-08T09:20:16.674Z,8.00
2018-07-08T09:22:46.018Z,7.53
2018-07-08T09:25:15.165Z,7.63
2018-07-08T09:27:44.282Z,7.23
2018-07-08T09:30:14.543Z,6.60
2018-07-08T09:32:44.067Z,7.40
2018-07-08T09:35:13.229Z,6.13
2018-07-08T09:37:42.625Z,7.93
2018-07-08T09:40:12.234Z,7.53
2018-07-08T09:42:41.368Z,7.03
2018-07-08T09:45:10.682Z,7.97
2018-07-08T09:47:39.874Z,5.97
2018-07-08T09:50:09.194Z,7.00
2018-07-08T09:52:38.578Z,7.27
2018-07-08T09:55:08.230Z,6.13
2018-07-08T09:57:38.090Z,6.20
2018-07-08T10:00:07.472Z,5.20
2018-07-08T10:02:37.264Z,5.83
2018-07-08T10:05:06.286Z,5.60
2018-07-08T10:07:35.792Z,5.37
2018-07-08T10:10:05.004Z,5.50
2018-07-08T10:12:34.253Z,5.70
2018-07-08T10:15:03.595Z,5.23
2018-07-08T10:17:32.807Z,5.43
2018-07-08T10:20:01.978Z,5.37
2018-07-08T10:22:31.089Z,4.97
2018-07-08T10:25:00.274Z,5.10
2018-07-08T10:28:12.237Z,4.93
2018-07-08T10:30:41.828Z,5.40
2018-07-08T10:33:11.188Z,5.43
2018-07-08T10:35:53.379Z,5.90
2018-07-08T10:38:22.878Z,5.17
2018-07-08T10:40:52.004Z,4.73
2018-07-08T10:43:20.878Z,5.50
2018-07-08T10:45:49.915Z,5.13
2018-07-08T10:48:19.076Z,5.47
2018-07-08T10:50:48.165Z,5.53
2018-07-08T10:53:17.465Z,6.00
2018-07-08T10:55:46.776Z,5.40
2018-07-08T10:58:16.730Z,5.73
2018-07-08T11:00:45.916Z,6.40
2018-07-08T11:03:14.994Z,6.03
2018-07-08T11:05:44.198Z,5.90
2018-07-08T11:08:20.217Z,6.27
2018-07-08T11:10:49.635Z,6.27
2018-07-08T11:13:20.863Z,6.93
2018-07-08T11:15:49.942Z,6.30
2018-07-08T11:18:19.084Z,6.33
2018-07-08T11:20:48.342Z,6.40
2018-07-08T11:23:17.346Z,5.43
2018-07-08T11:25:46.614Z,5.80
2018-07-08T11:28:15.794Z,5.67
2018-07-08T11:30:44.990Z,5.57
2018-07-08T11:33:14.123Z,5.07
2018-07-08T11:35:43.272Z,5.67
2018-07-08T11:38:12.437Z,5.50
2018-07-08T11:40:41.548Z,5.80
2018-07-08T11:43:10.408Z,6.03
2018-07-08T11:45:39.736Z,5.43
2018-07-08T11:48:08.970Z,5.77
2018-07-08T11:50:38.238Z,5.93
2018-07-08T11:53:07.317Z,5.93
2018-07-08T11:55:36.367Z,5.30
2018-07-08T11:58:05.505Z,6.33
2018-07-08T12:00:34.932Z,6.13
2018-07-08T12:03:04.382Z,5.20
2018-07-08T12:05:33.473Z,5.90
2018-07-08T12:08:02.784Z,5.63
2018-07-08T12:10:31.933Z,6.10
2018-07-08T12:13:01.368Z,5.13
2018-07-08T12:15:30.718Z,5.87
2018-07-08T12:17:59.858Z,5.43
2018-07-08T12:20:28.942Z,5.50
2018-07-08T12:22:58.008Z,5.70
2018-07-08T12:25:27.234Z,4.50
2018-07-08T12:27:56.490Z,5.43
2018-07-08T12:30:25.669Z,5.03
2018-07-08T12:32:54.715Z,5.57
2018-07-08T12:35:23.994Z,5.53
2018-07-08T12:37:53.105Z,4.87
2018-07-08T12:40:22.273Z,5.33
2018-07-08T12:42:51.661Z,5.40
2018-07-08T12:45:20.759Z,4.87
2018-07-08T12:47:49.879Z,4.23
2018-07-08T12:50:19.014Z,4.20
2018-07-08T12:52:48.213Z,4.40
2018-07-08T12:55:17.374Z,4.67
2018-07-08T12:57:46.573Z,4.60
2018-07-08T13:00:15.793Z,4.23
2018-07-08T13:02:44.911Z,4.00
2018-07-08T13:05:14.312Z,4.50
2018-07-08T13:07:43.304Z,3.97
2018-07-08T13:10:13.198Z,3.93
2018-07-08T13:12:42.415Z,4.10
2018-07-08T13:15:11.783Z,4.10
2018-07-08T13:17:40.898Z,4.93
2018-07-08T13:20:09.941Z,4.43
2018-07-08T13:22:39.364Z,4.13
2018-07-08T13:25:08.528Z,4.53
2018-07-08T13:27:37.742Z,4.23
2018-07-08T13:30:06.819Z,5.30
2018-07-08T13:32:35.997Z,4.77
2018-07-08T13:35:05.270Z,4.87
2018-07-08T13:37:34.367Z,4.40
2018-07-08T13:40:03.454Z,4.80
2018-07-08T13:42:32.562Z,4.13
2018-07-08T13:45:01.674Z,4.40
2018-07-08T13:47:30.971Z,4.60
2018-07-08T13:50:00.114Z,3.83
2018-07-08T13:52:29.364Z,3.93
2018-07-08T13:54:58.552Z,4.20
2018-07-08T13:57:27.638Z,4.10
2018-07-08T13:59:57.066Z,4.37
2018-07-08T14:02:26.238Z,4.77
2018-07-08T14:04:55.398Z,3.30
2018-07-08T14:07:24.528Z,4.00
2018-07-08T14:09:53.600Z,4.10
2018-07-08T14:12:23.173Z,3.90
2018-07-08T14:14:52.826Z,4.47
2018-07-08T14:17:21.958Z,3.83
2018-07-08T14:19:51.031Z,4.00
2018-07-08T14:22:21.496Z,3.90
2018-07-08T14:24:51.067Z,3.93
2018-07-08T14:27:20.512Z,3.60
2018-07-08T14:29:50.134Z,3.83
2018-07-08T14:32:19.249Z,4.07
2018-07-08T14:34:48.386Z,3.97
2018-07-08T14:37:17.682Z,4.03
2018-07-08T14:39:46.897Z,4.23
2018-07-08T14:42:16.082Z,4.07
2018-07-08T14:44:45.359Z,4.70
2018-07-08T14:47:14.716Z,3.83
2018-07-08T14:49:43.807Z,4.10
2018-07-08T14:52:13.149Z,4.00
2018-07-08T14:54:42.356Z,3.70
2018-07-08T14:57:11.557Z,3.30
2018-07-08T14:59:40.816Z,3.93
2018-07-08T15:02:10.029Z,3.50
2018-07-08T15:04:39.640Z,3.10
2018-07-08T15:07:08.940Z,3.60
2018-07-08T15:09:37.802Z,3.70
2018-07-08T15:12:07.152Z,3.50
2018-07-08T15:14:36.475Z,3.90
2018-07-08T15:17:05.667Z,3.70
2018-07-08T15:19:34.813Z,3.00
2018-07-08T15:22:04.220Z,3.00
2018-07-08T15:24:33.566Z,3.20
2018-07-08T15:27:02.636Z,3.70
2018-07-08T15:29:31.899Z,3.33
2018-07-08T15:32:01.139Z,3.20
2018-07-08T15:34:32.057Z,3.43
2018-07-08T15:37:02.946Z,3.80
2018-07-08T15:39:32.312Z,3.20
2018-07-08T15:42:01.527Z,3.70
2018-07-08T15:44:30.830Z,3.30
2018-07-08T15:47:01.118Z,4.13
2018-07-08T15:49:43.431Z,4.77
2018-07-08T15:52:12.859Z,3.40
2018-07-08T15:54:41.980Z,3.10
2018-07-08T15:57:11.067Z,3.30
2018-07-08T15:59:40.343Z,3.50
2018-07-08T16:02:09.490Z,2.90
2018-07-08T16:04:38.542Z,3.30
2018-07-08T16:07:07.706Z,2.83
2018-07-08T16:09:37.434Z,3.40
2018-07-08T16:12:06.722Z,4.13
2018-07-08T16:14:35.855Z,2.87
2018-07-08T16:17:05.158Z,3.00
2018-07-08T16:19:34.506Z,2.87
2018-07-08T16:22:03.626Z,4.00
2018-07-08T16:24:33.111Z,3.43
2018-07-08T16:27:08.795Z,3.33
2018-07-08T16:29:37.976Z,2.80
2018-07-08T16:32:07.624Z,2.70
2018-07-08T16:34:37.162Z,2.60
2018-07-08T16:37:06.249Z,3.07
2018-07-08T16:39:35.411Z,2.43
2018-07-08T16:42:04.510Z,2.57
2018-07-08T16:44:33.594Z,2.83
2018-07-08T16:47:02.645Z,3.10
2018-07-08T16:49:31.733Z,2.80
2018-07-08T16:52:00.819Z,2.30
2018-07-08T16:54:30.027Z,2.90
2018-07-08T16:56:59.310Z,2.87
2018-07-08T16:59:28.475Z,2.70
2018-07-08T17:01:57.666Z,3.00
2018-07-08T17:04:26.699Z,2.90
2018-07-08T17:06:55.822Z,2.47
2018-07-08T17:09:25.013Z,2.90
2018-07-08T17:11:54.237Z,2.73
2018-07-08T17:14:23.322Z,2.80
2018-07-08T17:16:52.449Z,2.57
2018-07-08T17:19:26.902Z,2.80
2018-07-08T17:21:56.512Z,2.80
2018-07-08T17:24:25.724Z,2.30
2018-07-08T17:26:54.947Z,3.03
2018-07-08T17:29:24.014Z,2.40
2018-07-08T17:31:53.993Z,2.50
2018-07-08T17:34:23.274Z,2.57
2018-07-08T17:36:52.583Z,2.83
2018-07-08T17:39:21.694Z,2.50
2018-07-08T17:41:50.962Z,2.83
2018-07-08T17:44:19.994Z,2.30
2018-07-08T17:46:49.218Z,2.83
2018-07-08T17:49:18.408Z,2.40
2018-07-08T17:51:47.561Z,2.70
2018-07-08T17:54:16.711Z,3.70
2018-07-08T17:56:45.885Z,2.10
2018-07-08T17:59:15.013Z,2.77
2018-07-08T18:01:44.159Z,3.47
2018-07-08T18:04:13.239Z,2.27
2018-07-08T18:06:42.363Z,2.30
2018-07-08T18:09:11.529Z,2.57
2018-07-08T18:11:40.750Z,2.40
2018-07-08T18:14:09.967Z,2.60
2018-07-08T18:16:38.994Z,2.40
2018-07-08T18:19:08.188Z,2.80
2018-07-08T18:21:37.922Z,2.60
2018-07-08T18:24:07.442Z,2.90
2018-07-08T18:26:36.838Z,2.33
2018-07-08T18:29:05.960Z,2.43
2018-07-08T18:31:35.187Z,2.20
2018-07-08T18:34:04.241Z,2.47
2018-07-08T18:36:33.516Z,2.70
2018-07-08T18:39:02.511Z,2.70
2018-07-08T18:41:31.635Z,2.47
2018-07-08T18:44:00.726Z,2.70
2018-07-08T18:46:29.972Z,2.63
2018-07-08T18:48:58.950Z,2.83
2018-07-08T18:51:33.670Z,2.83
2018-07-08T18:54:03.739Z,2.70
2018-07-08T18:59:06.496Z,2.37
2018-07-08T19:01:35.745Z,2.50
2018-07-08T19:04:04.997Z,2.90
2018-07-08T19:06:34.106Z,2.40
2018-07-08T19:09:04.594Z,2.90
2018-07-08T19:11:33.761Z,3.27
2018-07-08T19:14:02.927Z,2.87
2018-07-08T19:16:32.713Z,2.93
2018-07-08T19:19:03.107Z,6.87
2018-07-08T19:21:32.625Z,2.83
2018-07-08T19:24:01.755Z,3.00
2018-07-08T19:26:31.102Z,3.30
2018-07-08T19:29:01.981Z,2.63
2018-07-08T19:31:31.329Z,3.40
2018-07-08T19:34:00.467Z,2.90
2018-07-08T19:36:29.477Z,3.17
2018-07-08T19:38:58.548Z,3.13
2018-07-08T19:41:28.925Z,3.53
2018-07-08T19:43:58.295Z,3.30
2018-07-08T19:46:28.614Z,3.30
2018-07-08T19:49:01.886Z,3.20
2018-07-08T19:51:30.889Z,3.20
2018-07-08T19:54:00.199Z,3.80
2018-07-08T19:56:29.449Z,2.87
2018-07-08T19:58:58.948Z,3.90
2018-07-08T20:01:28.328Z,3.60
2018-07-08T20:03:57.457Z,3.60
2018-07-08T20:06:26.495Z,3.60
2018-07-08T20:08:55.323Z,3.37
2018-07-08T20:11:24.478Z,3.90
2018-07-08T20:13:53.618Z,3.97
2018-07-08T20:16:22.773Z,3.20
2018-07-08T20:18:51.971Z,3.60
2018-07-08T20:21:21.203Z,3.50
2018-07-08T20:23:50.139Z,3.63
2018-07-08T20:26:20.136Z,3.43
2018-07-08T20:28:49.250Z,4.20
2018-07-08T20:31:18.495Z,3.63
2018-07-08T20:33:47.589Z,3.70
2018-07-08T20:36:16.651Z,3.60
2018-07-08T20:38:45.649Z,3.67
2018-07-08T20:41:14.863Z,3.30
2018-07-08T20:43:43.933Z,3.83
2018-07-08T20:46:17.644Z,3.37
2018-07-08T20:48:46.554Z,3.50
2018-07-08T20:51:15.702Z,4.10
2018-07-08T20:53:44.754Z,4.30
2018-07-08T20:56:13.861Z,3.90
2018-07-08T20:58:43.334Z,4.00
2018-07-08T21:01:12.480Z,3.40
2018-07-08T21:03:41.581Z,4.27
2018-07-08T21:06:10.753Z,4.23
2018-07-08T21:08:40.090Z,3.73
2018-07-08T21:11:09.269Z,3.43
2018-07-08T21:13:38.361Z,3.27
2018-07-08T21:16:07.562Z,3.97
2018-07-08T21:18:36.657Z,3.30
2018-07-08T21:21:05.779Z,4.33
2018-07-08T21:23:35.393Z,4.20
2018-07-08T21:26:04.563Z,4.10
2018-07-08T21:28:33.642Z,3.83
2018-07-08T21:31:02.719Z,4.20
2018-07-08T21:33:31.944Z,4.50
2018-07-08T21:36:01.122Z,4.33
2018-07-08T21:38:30.356Z,3.23
2018-07-08T21:40:59.466Z,4.37
2018-07-08T21:43:28.622Z,4.13
2018-07-08T21:45:57.654Z,3.70
2018-07-08T21:48:26.701Z,4.40
2018-07-08T21:50:55.799Z,3.63
2018-07-08T21:53:24.861Z,4.10
2018-07-08T21:55:54.018Z,4.07
2018-07-08T21:58:23.087Z,3.70
2018-07-08T22:01:15.202Z,4.07
2018-07-08T22:03:44.958Z,3.50
2018-07-08T22:06:14.730Z,4.00
2018-07-08T22:08:43.904Z,4.20
2018-07-08T22:11:12.733Z,4.07
2018-07-08T22:13:42.333Z,4.10
2018-07-08T22:16:11.387Z,4.30
2018-07-08T22:18:40.435Z,4.70
2018-07-08T22:21:10.006Z,4.47
2018-07-08T22:23:39.106Z,4.70
2018-07-08T22:26:08.270Z,4.20
2018-07-08T22:28:37.483Z,4.60
2018-07-08T22:31:06.270Z,3.97
2018-07-08T22:33:35.475Z,4.33
2018-07-08T22:36:04.586Z,4.37
2018-07-08T22:38:33.730Z,4.33
2018-07-08T22:41:02.758Z,4.20
2018-07-08T22:43:31.922Z,4.43
2018-07-08T22:46:01.077Z,4.10
2018-07-08T22:48:30.147Z,4.43
2018-07-08T22:50:59.272Z,4.63
2018-07-08T22:53:28.407Z,4.27
2018-07-08T22:55:57.538Z,3.97
2018-07-08T22:58:26.639Z,3.83
2018-07-08T23:01:12.558Z,3.97
2018-07-08T23:03:46.069Z,4.40
2018-07-08T23:06:15.493Z,3.80
2018-07-08T23:08:44.682Z,4.23
2018-07-08T23:11:13.929Z,4.53
2018-07-08T23:13:42.929Z,4.10
2018-07-08T23:16:12.019Z,4.37
2018-07-08T23:18:41.254Z,4.00
2018-07-08T23:21:10.462Z,4.87
2018-07-08T23:23:39.762Z,4.17
2018-07-08T23:26:08.826Z,4.07
2018-07-08T23:28:38.253Z,4.40
2018-07-08T23:31:08.097Z,4.17
2018-07-08T23:33:37.234Z,3.57
2018-07-08T23:36:06.914Z,4.33
2018-07-08T23:38:36.178Z,3.70
2018-07-08T23:41:06.385Z,4.10
2018-07-08T23:43:35.601Z,4.20
2018-07-08T23:46:04.994Z,4.30
2018-07-08T23:48:34.531Z,4.37
2018-07-08T23:51:04.162Z,4.00
2018-07-08T23:53:33.246Z,4.27
2018-07-08T23:56:02.425Z,4.23
2018-07-08T23:58:31.506Z,4.10
